createdAt,value
2018-09-13T00:00:34.939Z,1003.93
2018-09-13T00:01:34.734Z,1003.90
2018-09-13T00:02:34.557Z,1003.92
2018-09-13T00:03:34.373Z,1003.92
2018-09-13T00:04:34.191Z,1003.89
2018-09-13T00:05:34.036Z,1003.92
2018-09-13T00:06:33.832Z,1003.89
2018-09-13T00:07:33.649Z,1003.90
2018-09-13T00:08:33.473Z,1003.86
2018-09-13T00:09:33.296Z,1003.85
2018-09-13T00:10:33.166Z,1003.79
2018-09-13T00:11:32.963Z,1003.73
2018-09-13T00:12:32.790Z,1003.63
2018-09-13T00:13:32.619Z,1003.61
2018-09-13T00:14:32.449Z,1003.56
2018-09-13T00:15:32.276Z,1003.53
2018-09-13T00:16:32.130Z,1003.52
2018-09-13T00:17:31.928Z,1003.50
2018-09-13T00:18:31.763Z,1003.52
2018-09-13T00:19:31.586Z,1003.53
2018-09-13T00:20:31.413Z,1003.55
2018-09-13T00:21:31.270Z,1003.57
2018-09-13T00:22:31.072Z,1003.59
2018-09-13T00:23:30.903Z,1003.65
2018-09-13T00:24:30.733Z,1003.64
2018-09-13T00:25:30.565Z,1003.66
2018-09-13T00:26:30.417Z,1003.66
2018-09-13T00:27:30.221Z,1003.67
2018-09-13T00:28:30.054Z,1003.67
2018-09-13T00:29:29.890Z,1003.64
2018-09-13T00:30:29.718Z,1003.58
2018-09-13T00:31:29.579Z,1003.57
2018-09-13T00:32:29.388Z,1003.55
2018-09-13T00:33:29.222Z,1003.53
2018-09-13T00:34:29.054Z,1003.55
2018-09-13T00:35:28.889Z,1003.56
2018-09-13T00:36:28.748Z,1003.57
2018-09-13T00:37:28.553Z,1003.58
2018-09-13T00:38:28.393Z,1003.62
2018-09-13T00:39:28.227Z,1003.62
2018-09-13T00:40:28.069Z,1003.66
2018-09-13T00:41:27.992Z,1003.60
2018-09-13T00:42:27.736Z,1003.63
2018-09-13T00:43:27.570Z,1003.62
2018-09-13T00:44:27.403Z,1003.61
2018-09-13T00:45:27.245Z,1003.61
2018-09-13T00:46:27.103Z,1003.59
2018-09-13T00:47:26.905Z,1003.58
2018-09-13T00:48:26.742Z,1003.64
2018-09-13T00:49:26.574Z,1003.65
2018-09-13T00:50:26.414Z,1003.68
2018-09-13T00:51:26.282Z,1003.71
2018-09-13T00:52:26.095Z,1003.65
2018-09-13T00:53:25.933Z,1003.58
2018-09-13T00:54:25.772Z,1003.61
2018-09-13T00:55:25.602Z,1003.61
2018-09-13T00:56:25.467Z,1003.61
2018-09-13T00:57:25.275Z,1003.66
2018-09-13T00:58:25.114Z,1003.60
2018-09-13T00:59:24.950Z,1003.59
2018-09-13T01:00:24.788Z,1003.60
2018-09-13T01:01:24.656Z,1003.60
2018-09-13T01:02:24.462Z,1003.58
2018-09-13T01:03:24.300Z,1003.59
2018-09-13T01:04:24.140Z,1003.61
2018-09-13T01:05:23.977Z,1003.59
2018-09-13T01:06:23.838Z,1003.56
2018-09-13T01:07:23.647Z,1003.59
2018-09-13T01:08:23.492Z,1003.56
2018-09-13T01:09:23.321Z,1003.54
2018-09-13T01:10:23.156Z,1003.47
2018-09-13T01:11:23.032Z,1003.50
2018-09-13T01:12:22.829Z,1003.50
2018-09-13T01:13:22.660Z,1003.48
2018-09-13T01:14:22.492Z,1003.48
2018-09-13T01:15:22.331Z,1003.48
2018-09-13T01:16:22.165Z,1003.44
2018-09-13T01:17:22.025Z,1003.45
2018-09-13T01:18:21.835Z,1003.39
2018-09-13T01:19:21.664Z,1003.42
2018-09-13T01:20:21.496Z,1003.41
2018-09-13T01:21:21.329Z,1003.41
2018-09-13T01:22:21.189Z,1003.46
2018-09-13T01:23:21.003Z,1003.45
2018-09-13T01:24:20.840Z,1003.49
2018-09-13T01:25:20.674Z,1003.49
2018-09-13T01:26:20.512Z,1003.47
2018-09-13T01:27:20.374Z,1003.45
2018-09-13T01:28:20.184Z,1003.48
2018-09-13T01:29:20.016Z,1003.49
2018-09-13T01:30:19.853Z,1003.47
2018-09-13T01:31:19.693Z,1003.47
2018-09-13T01:32:19.555Z,1003.42
2018-09-13T01:33:19.364Z,1003.43
2018-09-13T01:34:19.202Z,1003.41
2018-09-13T01:35:19.035Z,1003.41
2018-09-13T01:36:18.869Z,1003.33
2018-09-13T01:37:18.736Z,1003.36
2018-09-13T01:38:18.540Z,1003.36
2018-09-13T01:39:18.377Z,1003.38
2018-09-13T01:40:18.214Z,1003.40
2018-09-13T01:41:18.052Z,1003.39
2018-09-13T01:42:17.917Z,1003.39
2018-09-13T01:43:17.728Z,1003.37
2018-09-13T01:44:17.565Z,1003.37
2018-09-13T01:45:17.404Z,1003.41
2018-09-13T01:46:17.238Z,1003.40
2018-09-13T01:47:17.110Z,1003.38
2018-09-13T01:48:16.918Z,1003.32
2018-09-13T01:49:16.751Z,1003.32
2018-09-13T01:50:16.588Z,1003.34
2018-09-13T01:51:16.435Z,1003.33
2018-09-13T01:52:16.301Z,1003.27
2018-09-13T01:53:16.115Z,1003.31
2018-09-13T01:54:15.955Z,1003.35
2018-09-13T01:55:15.798Z,1003.36
2018-09-13T01:56:15.640Z,1003.34
2018-09-13T01:57:15.505Z,1003.41
2018-09-13T01:58:15.320Z,1003.42
2018-09-13T01:59:15.164Z,1003.43
2018-09-13T02:00:15.002Z,1003.42
2018-09-13T02:01:14.845Z,1003.40
2018-09-13T02:02:14.712Z,1003.37
2018-09-13T02:03:14.533Z,1003.38
2018-09-13T02:04:14.381Z,1003.30
2018-09-13T02:05:14.227Z,1003.33
2018-09-13T02:06:14.077Z,1003.33
2018-09-13T02:07:13.953Z,1003.31
2018-09-13T02:08:13.773Z,1003.36
2018-09-13T02:09:13.626Z,1003.37
2018-09-13T02:10:13.476Z,1003.37
2018-09-13T02:11:13.329Z,1003.43
2018-09-13T02:12:13.202Z,1003.46
2018-09-13T02:13:13.029Z,1003.51
2018-09-13T02:14:12.870Z,1003.54
2018-09-13T02:15:12.728Z,1003.56
2018-09-13T02:16:12.577Z,1003.53
2018-09-13T02:17:12.456Z,1003.55
2018-09-13T02:18:12.274Z,1003.57
2018-09-13T02:19:12.123Z,1003.59
2018-09-13T02:20:11.970Z,1003.59
2018-09-13T02:21:11.822Z,1003.60
2018-09-13T02:22:11.672Z,1003.54
2018-09-13T02:23:11.555Z,1003.59
2018-09-13T02:24:11.373Z,1003.61
2018-09-13T02:25:11.223Z,1003.60
2018-09-13T02:26:11.073Z,1003.63
2018-09-13T02:27:10.923Z,1003.58
2018-09-13T02:28:10.806Z,1003.58
2018-09-13T02:29:10.627Z,1003.51
2018-09-13T02:30:10.482Z,1003.51
2018-09-13T02:31:10.334Z,1003.49
2018-09-13T02:32:10.190Z,1003.50
2018-09-13T02:33:10.091Z,1003.49
2018-09-13T02:34:09.919Z,1003.53
2018-09-13T02:35:09.762Z,1003.59
2018-09-13T02:36:09.622Z,1003.60
2018-09-13T02:37:09.476Z,1003.63
2018-09-13T02:38:09.361Z,1003.68
2018-09-13T02:39:09.202Z,1003.77
2018-09-13T02:40:09.054Z,1003.74
2018-09-13T02:41:08.918Z,1003.79
2018-09-13T02:42:08.778Z,1003.75
2018-09-13T02:43:08.668Z,1003.73
2018-09-13T02:44:08.505Z,1003.70
2018-09-13T02:45:08.367Z,1003.70
2018-09-13T02:46:08.241Z,1003.75
2018-09-13T02:47:08.096Z,1003.69
2018-09-13T02:48:07.987Z,1003.67
2018-09-13T02:49:07.861Z,1003.62
2018-09-13T02:50:07.681Z,1003.57
2018-09-13T02:51:07.546Z,1003.58
2018-09-13T02:52:07.402Z,1003.55
2018-09-13T02:53:07.293Z,1003.59
2018-09-13T02:54:07.125Z,1003.59
2018-09-13T02:55:06.992Z,1003.65
2018-09-13T02:56:06.846Z,1003.63
2018-09-13T02:57:06.701Z,1003.67
2018-09-13T02:58:06.589Z,1003.66
2018-09-13T02:59:06.421Z,1003.66
2018-09-13T03:00:06.276Z,1003.59
2018-09-13T03:01:06.135Z,1003.65
2018-09-13T03:02:05.995Z,1003.64
2018-09-13T03:03:05.887Z,1003.61
2018-09-13T03:04:05.711Z,1003.62
2018-09-13T03:05:05.571Z,1003.62
2018-09-13T03:06:05.429Z,1003.60
2018-09-13T03:07:05.296Z,1003.60
2018-09-13T03:08:05.227Z,1003.62
2018-09-13T03:09:05.012Z,1003.57
2018-09-13T03:10:04.884Z,1003.55
2018-09-13T03:11:04.739Z,1003.56
2018-09-13T03:12:04.600Z,1003.58
2018-09-13T03:13:04.491Z,1003.55
2018-09-13T03:14:04.332Z,1003.56
2018-09-13T03:15:04.197Z,1003.58
2018-09-13T03:16:04.065Z,1003.57
2018-09-13T03:17:03.938Z,1003.60
2018-09-13T03:18:03.824Z,1003.63
2018-09-13T03:19:03.678Z,1003.61
2018-09-13T03:20:03.548Z,1003.58
2018-09-13T03:21:03.411Z,1003.58
2018-09-13T03:22:03.276Z,1003.58
2018-09-13T03:23:03.193Z,1003.56
2018-09-13T03:24:03.008Z,1003.55
2018-09-13T03:25:02.877Z,1003.55
2018-09-13T03:26:02.744Z,1003.56
2018-09-13T03:27:02.610Z,1003.56
2018-09-13T03:28:02.479Z,1003.57
2018-09-13T03:29:02.367Z,1003.55
2018-09-13T03:30:02.205Z,1003.58
2018-09-13T03:31:02.070Z,1003.55
2018-09-13T03:32:01.933Z,1003.59
2018-09-13T03:33:01.801Z,1003.57
2018-09-13T03:34:01.682Z,1003.55
2018-09-13T03:35:01.517Z,1003.56
2018-09-13T03:36:01.376Z,1003.55
2018-09-13T03:37:01.244Z,1003.55
2018-09-13T03:38:01.101Z,1003.56
2018-09-13T03:39:00.990Z,1003.59
2018-09-13T03:40:00.833Z,1003.55
2018-09-13T03:41:00.693Z,1003.60
2018-09-13T03:42:00.628Z,1003.60
2018-09-13T03:43:00.433Z,1003.61
2018-09-13T03:44:00.324Z,1003.64
2018-09-13T03:45:00.157Z,1003.62
2018-09-13T03:46:00.029Z,1003.58
2018-09-13T03:46:59.892Z,1003.59
2018-09-13T03:47:59.753Z,1003.50
2018-09-13T03:48:59.640Z,1003.47
2018-09-13T03:49:59.481Z,1003.45
2018-09-13T03:50:59.348Z,1003.42
2018-09-13T03:51:59.216Z,1003.43
2018-09-13T03:52:59.085Z,1003.40
2018-09-13T03:53:58.983Z,1003.45
2018-09-13T03:54:58.823Z,1003.45
2018-09-13T03:55:58.688Z,1003.49
2018-09-13T03:56:58.552Z,1003.50
2018-09-13T03:57:58.435Z,1003.47
2018-09-13T03:58:58.312Z,1003.47
2018-09-13T03:59:58.151Z,1003.48
2018-09-13T04:00:58.019Z,1003.50
2018-09-13T04:01:57.884Z,1003.46
2018-09-13T04:02:57.751Z,1003.46
2018-09-13T04:03:57.648Z,1003.49
2018-09-13T04:04:57.490Z,1003.50
2018-09-13T04:05:57.359Z,1003.50
2018-09-13T04:06:57.225Z,1003.55
2018-09-13T04:07:57.091Z,1003.56
2018-09-13T04:08:56.986Z,1003.55
2018-09-13T04:09:56.878Z,1003.55
2018-09-13T04:10:56.700Z,1003.57
2018-09-13T04:11:56.566Z,1003.59
2018-09-13T04:12:56.436Z,1003.54
2018-09-13T04:13:56.329Z,1003.55
2018-09-13T04:14:56.170Z,1003.50
2018-09-13T04:15:56.047Z,1003.45
2018-09-13T04:16:55.920Z,1003.42
2018-09-13T04:17:55.793Z,1003.41
2018-09-13T04:18:55.792Z,1003.43
2018-09-13T04:19:55.548Z,1003.43
2018-09-13T04:20:55.416Z,1003.48
2018-09-13T04:21:55.294Z,1003.43
2018-09-13T04:22:55.168Z,1003.51
2018-09-13T04:23:55.067Z,1003.50
2018-09-13T04:24:54.913Z,1003.52
2018-09-13T04:25:54.786Z,1003.48
2018-09-13T04:26:54.656Z,1003.48
2018-09-13T04:27:54.744Z,1003.48
2018-09-13T04:28:54.442Z,1003.47
2018-09-13T04:29:54.276Z,1003.46
2018-09-13T04:30:54.150Z,1003.43
2018-09-13T04:31:54.021Z,1003.46
2018-09-13T04:32:53.923Z,1003.46
2018-09-13T04:33:53.762Z,1003.44
2018-09-13T04:34:53.666Z,1003.48
2018-09-13T04:35:53.658Z,1003.45
2018-09-13T04:36:53.384Z,1003.53
2018-09-13T04:37:53.264Z,1003.56
2018-09-13T04:38:53.139Z,1003.57
2018-09-13T04:39:53.039Z,1003.56
2018-09-13T04:40:52.892Z,1003.57
2018-09-13T04:41:52.769Z,1003.56
2018-09-13T04:42:52.651Z,1003.57
2018-09-13T04:43:52.532Z,1003.55
2018-09-13T04:44:52.442Z,1003.55
2018-09-13T04:45:52.293Z,1003.54
2018-09-13T04:46:52.170Z,1003.57
2018-09-13T04:47:52.048Z,1003.57
2018-09-13T04:48:51.925Z,1003.63
2018-09-13T04:49:51.828Z,1003.62
2018-09-13T04:50:51.683Z,1003.69
2018-09-13T04:51:51.569Z,1003.69
2018-09-13T04:52:51.449Z,1003.73
2018-09-13T04:53:51.326Z,1003.67
2018-09-13T04:54:51.237Z,1003.72
2018-09-13T04:55:51.097Z,1003.69
2018-09-13T04:56:50.981Z,1003.72
2018-09-13T04:57:50.865Z,1003.75
2018-09-13T04:58:50.753Z,1003.73
2018-09-13T04:59:50.658Z,1003.72
2018-09-13T05:00:50.513Z,1003.71
2018-09-13T05:01:50.398Z,1003.70
2018-09-13T05:02:50.286Z,1003.67
2018-09-13T05:03:50.193Z,1003.66
2018-09-13T05:04:50.078Z,1003.65
2018-09-13T05:05:49.936Z,1003.68
2018-09-13T05:06:49.823Z,1003.68
2018-09-13T05:07:49.709Z,1003.74
2018-09-13T05:08:49.593Z,1003.70
2018-09-13T05:09:49.506Z,1003.70
2018-09-13T05:10:49.360Z,1003.74
2018-09-13T05:11:49.244Z,1003.71
2018-09-13T05:12:49.170Z,1003.70
2018-09-13T05:13:49.009Z,1003.69
2018-09-13T05:14:48.916Z,1003.65
2018-09-13T05:15:48.769Z,1003.68
2018-09-13T05:16:48.656Z,1003.68
2018-09-13T05:17:48.545Z,1003.67
2018-09-13T05:18:48.438Z,1003.66
2018-09-13T05:19:48.352Z,1003.67
2018-09-13T05:20:48.229Z,1003.71
2018-09-13T05:21:48.101Z,1003.70
2018-09-13T05:22:47.983Z,1003.75
2018-09-13T05:23:47.869Z,1003.76
2018-09-13T05:24:47.780Z,1003.71
2018-09-13T05:25:47.644Z,1003.71
2018-09-13T05:26:48.424Z,1003.75
2018-09-13T05:27:47.405Z,1003.70
2018-09-13T05:28:47.315Z,1003.69
2018-09-13T05:29:47.204Z,1003.70
2018-09-13T05:30:47.064Z,1003.68
2018-09-13T05:31:47.050Z,1003.70
2018-09-13T05:32:46.818Z,1003.71
2018-09-13T05:33:46.700Z,1003.71
2018-09-13T05:34:46.608Z,1003.71
2018-09-13T05:35:46.458Z,1003.70
2018-09-13T05:36:46.337Z,1003.76
2018-09-13T05:37:46.215Z,1003.74
2018-09-13T05:38:46.116Z,1003.75
2018-09-13T05:39:46.021Z,1003.74
2018-09-13T05:40:45.852Z,1003.76
2018-09-13T05:41:45.737Z,1003.77
2018-09-13T05:42:45.618Z,1003.79
2018-09-13T05:43:45.502Z,1003.77
2018-09-13T05:44:45.433Z,1003.75
2018-09-13T05:45:45.291Z,1003.82
2018-09-13T05:46:45.152Z,1003.79
2018-09-13T05:47:45.035Z,1003.81
2018-09-13T05:48:44.918Z,1003.80
2018-09-13T05:49:44.802Z,1003.82
2018-09-13T05:50:44.716Z,1003.82
2018-09-13T05:51:44.581Z,1003.85
2018-09-13T05:52:44.469Z,1003.83
2018-09-13T05:53:44.360Z,1003.83
2018-09-13T05:54:44.251Z,1003.82
2018-09-13T05:55:44.171Z,1003.82
2018-09-13T05:56:44.026Z,1003.83
2018-09-13T05:57:43.912Z,1003.83
2018-09-13T05:58:43.795Z,1003.81
2018-09-13T05:59:43.679Z,1003.80
2018-09-13T06:00:43.598Z,1003.84
2018-09-13T06:01:43.478Z,1003.83
2018-09-13T06:02:43.330Z,1003.86
2018-09-13T06:03:43.210Z,1003.87
2018-09-13T06:04:43.092Z,1003.88
2018-09-13T06:05:43.000Z,1003.91
2018-09-13T06:06:42.853Z,1003.89
2018-09-13T06:07:42.734Z,1003.88
2018-09-13T06:08:42.624Z,1003.84
2018-09-13T06:09:42.502Z,1003.88
2018-09-13T06:10:42.400Z,1003.87
2018-09-13T06:11:42.258Z,1003.84
2018-09-13T06:12:42.145Z,1003.84
2018-09-13T06:13:42.132Z,1003.84
2018-09-13T06:14:41.922Z,1003.83
2018-09-13T06:15:41.820Z,1003.84
2018-09-13T06:16:41.672Z,1003.85
2018-09-13T06:17:41.564Z,1003.79
2018-09-13T06:18:41.433Z,1003.79
2018-09-13T06:19:41.338Z,1003.75
2018-09-13T06:20:41.224Z,1003.83
2018-09-13T06:21:41.080Z,1003.76
2018-09-13T06:22:40.965Z,1003.75
2018-09-13T06:23:40.845Z,1003.79
2018-09-13T06:24:40.732Z,1003.81
2018-09-13T06:25:40.640Z,1003.86
2018-09-13T06:26:40.500Z,1003.89
2018-09-13T06:27:40.379Z,1003.96
2018-09-13T06:28:40.264Z,1004.00
2018-09-13T06:29:40.208Z,1003.97
2018-09-13T06:30:40.060Z,1004.01
2018-09-13T06:31:39.917Z,1003.97
2018-09-13T06:32:39.794Z,1004.00
2018-09-13T06:33:39.680Z,1004.02
2018-09-13T06:34:39.559Z,1003.99
2018-09-13T06:35:39.471Z,1004.03
2018-09-13T06:36:39.349Z,1003.99
2018-09-13T06:37:39.207Z,1004.00
2018-09-13T06:38:39.103Z,1003.96
2018-09-13T06:39:38.977Z,1003.98
2018-09-13T06:40:38.887Z,1004.05
2018-09-13T06:41:38.742Z,1004.06
2018-09-13T06:42:38.617Z,1004.03
2018-09-13T06:43:38.519Z,1004.05
2018-09-13T06:44:38.376Z,1004.11
2018-09-13T06:45:38.286Z,1004.08
2018-09-13T06:46:38.141Z,1004.10
2018-09-13T06:47:38.019Z,1004.11
2018-09-13T06:48:37.958Z,1004.09
2018-09-13T06:49:37.784Z,1004.08
2018-09-13T06:50:37.698Z,1004.08
2018-09-13T06:51:37.575Z,1004.04
2018-09-13T06:52:37.427Z,1004.02
2018-09-13T06:53:37.309Z,1003.98
2018-09-13T06:54:37.181Z,1003.97
2018-09-13T06:55:37.060Z,1003.98
2018-09-13T06:56:36.961Z,1003.92
2018-09-13T06:57:36.813Z,1003.93
2018-09-13T06:58:36.691Z,1003.92
2018-09-13T06:59:36.571Z,1003.92
2018-09-13T07:00:36.450Z,1003.95
2018-09-13T07:01:36.361Z,1003.89
2018-09-13T07:02:36.260Z,1003.85
2018-09-13T07:03:36.092Z,1003.87
2018-09-13T07:04:35.970Z,1003.88
2018-09-13T07:05:35.849Z,1003.89
2018-09-13T07:06:35.751Z,1003.87
2018-09-13T07:07:35.597Z,1003.94
2018-09-13T07:08:35.479Z,1003.87
2018-09-13T07:09:35.345Z,1003.88
2018-09-13T07:10:35.222Z,1003.89
2018-09-13T07:11:35.126Z,1003.92
2018-09-13T07:12:34.974Z,1003.92
2018-09-13T07:13:34.855Z,1003.94
2018-09-13T07:14:34.723Z,1003.99
2018-09-13T07:15:34.598Z,1003.99
2018-09-13T07:16:34.502Z,1003.97
2018-09-13T07:17:34.347Z,1003.97
2018-09-13T07:18:34.221Z,1003.98
2018-09-13T07:19:34.100Z,1003.96
2018-09-13T07:20:33.975Z,1003.97
2018-09-13T07:21:33.873Z,1003.99
2018-09-13T07:22:33.728Z,1004.00
2018-09-13T07:23:33.605Z,1003.95
2018-09-13T07:24:33.473Z,1004.01
2018-09-13T07:25:33.351Z,1003.97
2018-09-13T07:26:33.252Z,1003.99
2018-09-13T07:27:33.092Z,1003.99
2018-09-13T07:28:32.968Z,1003.98
2018-09-13T07:29:32.845Z,1004.01
2018-09-13T07:30:32.724Z,1004.00
2018-09-13T07:31:32.622Z,1003.98
2018-09-13T07:32:32.466Z,1004.01
2018-09-13T07:33:32.338Z,1003.97
2018-09-13T07:34:32.212Z,1004.03
2018-09-13T07:35:32.076Z,1004.04
2018-09-13T07:36:31.964Z,1004.03
2018-09-13T07:37:31.807Z,1003.99
2018-09-13T07:38:31.675Z,1004.01
2018-09-13T07:39:31.544Z,1004.00
2018-09-13T07:40:31.413Z,1004.03
2018-09-13T07:41:31.313Z,1004.00
2018-09-13T07:42:31.162Z,1004.05
2018-09-13T07:43:31.018Z,1004.04
2018-09-13T07:44:30.883Z,1004.02
2018-09-13T07:45:30.751Z,1003.94
2018-09-13T07:46:30.643Z,1003.96
2018-09-13T07:47:30.481Z,1003.96
2018-09-13T07:48:30.347Z,1003.98
2018-09-13T07:49:30.317Z,1004.02
2018-09-13T07:50:30.073Z,1003.99
2018-09-13T07:51:29.971Z,1004.03
2018-09-13T07:52:29.802Z,1004.08
2018-09-13T07:53:29.669Z,1004.10
2018-09-13T07:54:29.530Z,1004.12
2018-09-13T07:55:29.395Z,1004.18
2018-09-13T07:56:29.362Z,1004.18
2018-09-13T07:57:29.128Z,1004.24
2018-09-13T07:58:28.996Z,1004.23
2018-09-13T07:59:28.855Z,1004.21
2018-09-13T08:00:28.717Z,1004.25
2018-09-13T08:01:28.587Z,1004.22
2018-09-13T08:02:28.483Z,1004.25
2018-09-13T08:03:28.319Z,1004.27
2018-09-13T08:04:28.175Z,1004.31
2018-09-13T08:05:28.042Z,1004.30
2018-09-13T08:06:27.905Z,1004.29
2018-09-13T08:07:27.801Z,1004.30
2018-09-13T08:08:27.633Z,1004.32
2018-09-13T08:09:27.513Z,1004.33
2018-09-13T08:10:27.362Z,1004.34
2018-09-13T08:11:27.227Z,1004.33
2018-09-13T08:12:27.123Z,1004.36
2018-09-13T08:13:26.953Z,1004.37
2018-09-13T08:14:26.830Z,1004.39
2018-09-13T08:15:26.681Z,1004.43
2018-09-13T08:16:26.552Z,1004.42
2018-09-13T08:17:26.441Z,1004.36
2018-09-13T08:18:26.269Z,1004.46
2018-09-13T08:19:26.132Z,1004.50
2018-09-13T08:20:25.989Z,1004.45
2018-09-13T08:21:25.854Z,1004.47
2018-09-13T08:22:25.744Z,1004.51
2018-09-13T08:23:25.585Z,1004.52
2018-09-13T08:24:25.450Z,1004.58
2018-09-13T08:25:25.315Z,1004.60
2018-09-13T08:26:25.183Z,1004.60
2018-09-13T08:27:25.078Z,1004.57
2018-09-13T08:28:24.916Z,1004.53
2018-09-13T08:29:24.779Z,1004.54
2018-09-13T08:30:24.641Z,1004.53
2018-09-13T08:31:24.504Z,1004.49
2018-09-13T08:32:24.392Z,1004.51
2018-09-13T08:33:24.334Z,1004.49
2018-09-13T08:34:24.083Z,1004.48
2018-09-13T08:35:23.942Z,1004.50
2018-09-13T08:36:23.804Z,1004.47
2018-09-13T08:37:23.690Z,1004.46
2018-09-13T08:38:23.526Z,1004.49
2018-09-13T08:39:23.391Z,1004.50
2018-09-13T08:40:23.380Z,1004.53
2018-09-13T08:41:23.104Z,1004.52
2018-09-13T08:42:22.986Z,1004.58
2018-09-13T08:43:22.821Z,1004.60
2018-09-13T08:44:22.685Z,1004.51
2018-09-13T08:45:22.537Z,1004.52
2018-09-13T08:46:22.401Z,1004.53
2018-09-13T08:47:22.281Z,1004.56
2018-09-13T08:48:22.113Z,1004.61
2018-09-13T08:49:21.974Z,1004.59
2018-09-13T08:50:21.832Z,1004.61
2018-09-13T08:51:21.688Z,1004.63
2018-09-13T08:52:21.577Z,1004.66
2018-09-13T08:53:21.404Z,1004.63
2018-09-13T08:54:21.259Z,1004.61
2018-09-13T08:55:21.117Z,1004.63
2018-09-13T08:56:20.982Z,1004.64
2018-09-13T08:57:20.857Z,1004.61
2018-09-13T08:58:20.692Z,1004.60
2018-09-13T08:59:20.552Z,1004.63
2018-09-13T09:00:20.416Z,1004.60
2018-09-13T09:01:20.271Z,1004.62
2018-09-13T09:02:20.151Z,1004.59
2018-09-13T09:03:19.978Z,1004.63
2018-09-13T09:04:19.841Z,1004.62
2018-09-13T09:05:19.683Z,1004.62
2018-09-13T09:06:19.569Z,1004.64
2018-09-13T09:07:19.421Z,1004.65
2018-09-13T09:08:19.255Z,1004.70
2018-09-13T09:09:19.102Z,1004.65
2018-09-13T09:10:18.958Z,1004.69
2018-09-13T09:11:18.804Z,1004.67
2018-09-13T09:12:18.660Z,1004.70
2018-09-13T09:13:18.537Z,1004.70
2018-09-13T09:14:18.371Z,1004.70
2018-09-13T09:15:18.218Z,1004.68
2018-09-13T09:16:18.077Z,1004.64
2018-09-13T09:17:17.919Z,1004.68
2018-09-13T09:18:17.798Z,1004.64
2018-09-13T09:19:17.624Z,1004.58
2018-09-13T09:20:17.476Z,1004.63
2018-09-13T09:21:17.328Z,1004.61
2018-09-13T09:22:17.176Z,1004.59
2018-09-13T09:23:17.054Z,1004.59
2018-09-13T09:24:16.873Z,1004.58
2018-09-13T09:25:16.721Z,1004.57
2018-09-13T09:26:16.581Z,1004.56
2018-09-13T09:27:16.429Z,1004.59
2018-09-13T09:28:16.305Z,1004.55
2018-09-13T09:29:16.198Z,1004.55
2018-09-13T09:30:15.977Z,1004.54
2018-09-13T09:31:15.837Z,1004.53
2018-09-13T09:32:15.670Z,1004.54
2018-09-13T09:33:15.542Z,1004.52
2018-09-13T09:34:15.362Z,1004.54
2018-09-13T09:35:15.210Z,1004.50
2018-09-13T09:36:15.056Z,1004.49
2018-09-13T09:37:14.902Z,1004.45
2018-09-13T09:38:14.776Z,1004.49
2018-09-13T09:39:14.596Z,1004.50
2018-09-13T09:40:14.442Z,1004.53
2018-09-13T09:41:14.284Z,1004.57
2018-09-13T09:42:14.131Z,1004.54
2018-09-13T09:43:13.995Z,1004.55
2018-09-13T09:44:13.818Z,1004.56
2018-09-13T09:45:13.648Z,1004.54
2018-09-13T09:46:13.488Z,1004.53
2018-09-13T09:47:13.337Z,1004.55
2018-09-13T09:48:13.260Z,1004.52
2018-09-13T09:49:12.998Z,1004.53
2018-09-13T09:50:12.887Z,1004.58
2018-09-13T09:51:12.677Z,1004.57
2018-09-13T09:52:12.517Z,1004.56
2018-09-13T09:53:12.375Z,1004.58
2018-09-13T09:54:12.181Z,1004.64
2018-09-13T09:55:12.016Z,1004.66
2018-09-13T09:56:11.862Z,1004.64
2018-09-13T09:57:11.681Z,1004.65
2018-09-13T09:58:11.538Z,1004.61
2018-09-13T09:59:11.343Z,1004.60
2018-09-13T10:00:11.176Z,1004.61
2018-09-13T10:01:11.012Z,1004.64
2018-09-13T10:02:10.846Z,1004.64
2018-09-13T10:03:10.732Z,1004.58
2018-09-13T10:04:10.543Z,1004.61
2018-09-13T10:05:10.335Z,1004.66
2018-09-13T10:06:10.168Z,1004.59
2018-09-13T10:07:09.986Z,1004.59
2018-09-13T10:08:09.843Z,1004.59
2018-09-13T10:09:09.726Z,1004.59
2018-09-13T10:10:09.455Z,1004.56
2018-09-13T10:11:09.276Z,1004.54
2018-09-13T10:12:09.098Z,1004.58
2018-09-13T10:13:08.958Z,1004.58
2018-09-13T10:14:08.747Z,1004.60
2018-09-13T10:15:08.619Z,1004.62
2018-09-13T10:16:08.407Z,1004.55
2018-09-13T10:17:08.231Z,1004.54
2018-09-13T10:18:08.052Z,1004.55
2018-09-13T10:19:07.905Z,1004.59
2018-09-13T10:20:07.699Z,1004.55
2018-09-13T10:21:07.520Z,1004.57
2018-09-13T10:22:07.349Z,1004.60
2018-09-13T10:23:07.167Z,1004.55
2018-09-13T10:24:07.022Z,1004.58
2018-09-13T10:25:06.810Z,1004.49
2018-09-13T10:26:06.636Z,1004.48
2018-09-13T10:27:06.490Z,1004.46
2018-09-13T10:28:06.284Z,1004.45
2018-09-13T10:29:06.145Z,1004.45
2018-09-13T10:30:05.921Z,1004.39
2018-09-13T10:31:05.745Z,1004.44
2018-09-13T10:32:05.566Z,1004.38
2018-09-13T10:33:05.388Z,1004.41
2018-09-13T10:34:05.237Z,1004.39
2018-09-13T10:35:05.038Z,1004.36
2018-09-13T10:36:04.860Z,1004.34
2018-09-13T10:37:04.691Z,1004.36
2018-09-13T10:38:04.511Z,1004.36
2018-09-13T10:39:04.366Z,1004.36
2018-09-13T10:40:04.160Z,1004.39
2018-09-13T10:41:03.980Z,1004.35
2018-09-13T10:42:03.808Z,1004.35
2018-09-13T10:43:03.629Z,1004.37
2018-09-13T10:44:03.483Z,1004.39
2018-09-13T10:45:03.273Z,1004.37
2018-09-13T10:46:03.096Z,1004.33
2018-09-13T10:47:02.924Z,1004.34
2018-09-13T10:48:02.783Z,1004.36
2018-09-13T10:49:02.568Z,1004.42
2018-09-13T10:50:02.406Z,1004.37
2018-09-13T10:51:02.203Z,1004.38
2018-09-13T10:52:02.021Z,1004.41
2018-09-13T10:53:01.849Z,1004.47
2018-09-13T10:54:01.677Z,1004.46
2018-09-13T10:55:01.513Z,1004.52
2018-09-13T10:56:01.314Z,1004.46
2018-09-13T10:57:01.131Z,1004.52
2018-09-13T10:58:00.956Z,1004.56
2018-09-13T10:59:00.839Z,1004.51
2018-09-13T11:00:00.624Z,1004.45
2018-09-13T11:01:00.428Z,1004.43
2018-09-13T11:02:00.260Z,1004.43
2018-09-13T11:03:00.085Z,1004.37
2018-09-13T11:03:59.952Z,1004.37
2018-09-13T11:04:59.760Z,1004.32
2018-09-13T11:05:59.563Z,1004.37
2018-09-13T11:06:59.384Z,1004.46
2018-09-13T11:07:59.208Z,1004.47
2018-09-13T11:08:59.037Z,1004.48
2018-09-13T11:09:58.896Z,1004.48
2018-09-13T11:10:58.760Z,1004.51
2018-09-13T11:11:58.529Z,1004.48
2018-09-13T11:12:58.359Z,1004.48
2018-09-13T11:13:58.195Z,1004.50
2018-09-13T11:14:58.055Z,1004.55
2018-09-13T11:15:57.847Z,1004.56
2018-09-13T11:16:57.673Z,1004.59
2018-09-13T11:17:57.511Z,1004.58
2018-09-13T11:18:57.331Z,1004.58
2018-09-13T11:19:57.182Z,1004.55
2018-09-13T11:20:56.982Z,1004.52
2018-09-13T11:21:56.812Z,1004.51
2018-09-13T11:22:56.640Z,1004.53
2018-09-13T11:23:56.463Z,1004.50
2018-09-13T11:24:56.338Z,1004.53
2018-09-13T11:25:56.136Z,1004.56
2018-09-13T11:26:55.962Z,1004.52
2018-09-13T11:27:55.794Z,1004.53
2018-09-13T11:28:55.628Z,1004.48
2018-09-13T11:29:55.462Z,1004.46
2018-09-13T11:30:55.319Z,1004.50
2018-09-13T11:31:55.128Z,1004.50
2018-09-13T11:32:54.958Z,1004.52
2018-09-13T11:33:54.788Z,1004.43
2018-09-13T11:34:54.619Z,1004.46
2018-09-13T11:35:54.477Z,1004.41
2018-09-13T11:36:54.281Z,1004.44
2018-09-13T11:37:54.114Z,1004.43
2018-09-13T11:38:53.944Z,1004.44
2018-09-13T11:39:53.961Z,1004.36
2018-09-13T11:40:53.963Z,1004.41
2018-09-13T11:41:53.429Z,1004.40
2018-09-13T11:42:53.253Z,1004.43
2018-09-13T11:43:53.089Z,1004.44
2018-09-13T11:44:52.916Z,1004.43
2018-09-13T11:45:52.774Z,1004.41
2018-09-13T11:46:52.577Z,1004.39
2018-09-13T11:47:52.409Z,1004.38
2018-09-13T11:48:52.236Z,1004.33
2018-09-13T11:49:52.064Z,1004.33
2018-09-13T11:50:51.923Z,1004.33
2018-09-13T11:51:51.728Z,1004.32
2018-09-13T11:52:51.563Z,1004.29
2018-09-13T11:53:51.406Z,1004.25
2018-09-13T11:54:51.232Z,1004.23
2018-09-13T11:55:51.091Z,1004.28
2018-09-13T11:56:50.898Z,1004.27
2018-09-13T11:57:50.734Z,1004.26
2018-09-13T11:58:50.565Z,1004.28
2018-09-13T11:59:50.398Z,1004.33
2018-09-13T12:00:50.246Z,1004.30
2018-09-13T12:01:50.055Z,1004.29
2018-09-13T12:02:49.885Z,1004.27
2018-09-13T12:03:49.714Z,1004.28